Time;durP1;ratioP1;P1;durP2;ratioP2;P2;SDS_P1;SDS_P2;PMS_P1;PMS_P2;Temp;Humidity;BMP_temperature;BMP_pressure;BME280_temperature;BME280_humidity;BME280_pressure;Samples;Min_cycle;Max_cycle;Signal;HPM_P1;HPM_P2
2024/01/16 00:01:37;;;;;;;7.75;3.33;;;1.40;99.90;;;;;;5092451;28;20162;-66
2024/01/16 00:04:03;;;;;;;9.75;4.07;;;1.40;99.90;;;;;;5092392;28;20285;-66
2024/01/16 00:06:29;;;;;;;7.03;3.20;;;1.40;99.90;;;;;;5092433;28;20051;-66
2024/01/16 00:08:54;;;;;;;7.93;3.08;;;1.30;99.90;;;;;;5092259;28;20078;-66
2024/01/16 00:11:20;;;;;;;13.65;3.50;;;1.40;99.90;;;;;;5092291;28;20088;-66
2024/01/16 00:13:46;;;;;;;6.57;3.25;;;1.40;99.90;;;;;;5092103;28;20024;-66
2024/01/16 00:16:11;;;;;;;12.68;2.78;;;1.30;99.90;;;;;;5092235;28;20025;-66
2024/01/16 00:18:37;;;;;;;5.80;3.08;;;1.30;99.90;;;;;;5092415;28;20107;-66
2024/01/16 00:21:03;;;;;;;8.35;3.13;;;1.40;99.90;;;;;;5092232;28;20024;-66
2024/01/16 00:23:31;;;;;;;7.25;2.55;;;1.30;99.90;;;;;;5092414;28;20025;-67
2024/01/16 00:25:57;;;;;;;6.65;3.15;;;1.30;99.90;;;;;;5092302;28;20021;-66
2024/01/16 00:28:22;;;;;;;5.93;2.83;;;1.30;99.90;;;;;;5092260;28;20028;-66
2024/01/16 00:30:48;;;;;;;10.63;3.33;;;1.30;99.90;;;;;;5092012;28;20033;-66
2024/01/16 00:33:13;;;;;;;14.57;3.13;;;1.30;99.90;;;;;;5091957;28;20032;-66
2024/01/16 00:35:39;;;;;;;10.57;3.55;;;1.30;99.90;;;;;;5092161;28;20052;-66
2024/01/16 00:38:05;;;;;;;6.65;3.13;;;1.30;99.90;;;;;;5092018;28;20040;-65
2024/01/16 00:40:31;;;;;;;6.28;2.58;;;1.30;99.90;;;;;;5092041;28;20086;-66
2024/01/16 00:42:56;;;;;;;8.95;3.08;;;1.30;99.90;;;;;;5092136;28;20028;-66
2024/01/16 00:45:22;;;;;;;5.93;2.50;;;1.30;99.90;;;;;;5091954;28;20050;-66
2024/01/16 00:47:47;;;;;;;6.28;2.67;;;1.30;99.90;;;;;;5092156;28;20035;-66
2024/01/16 00:50:13;;;;;;;6.68;2.45;;;1.30;99.90;;;;;;5091945;28;20080;-66
2024/01/16 00:52:39;;;;;;;4.90;2.30;;;1.30;99.90;;;;;;5091916;28;20044;-66
2024/01/16 00:55:06;;;;;;;6.88;2.63;;;1.30;99.90;;;;;;5091973;28;20486;-66
2024/01/16 00:57:31;;;;;;;5.32;2.95;;;1.30;99.90;;;;;;5091943;28;20024;-66
2024/01/16 00:59:57;;;;;;;4.90;2.83;;;1.30;99.90;;;;;;5091826;28;20039;-66
2024/01/16 01:02:22;;;;;;;7.90;2.75;;;1.30;99.90;;;;;;5091655;28;20031;-66
2024/01/16 01:04:48;;;;;;;4.75;2.20;;;1.30;99.90;;;;;;5091800;28;20055;-66
2024/01/16 01:07:14;;;;;;;4.18;1.67;;;1.30;99.90;;;;;;5091799;28;20032;-66
2024/01/16 01:09:40;;;;;;;6.10;1.95;;;1.30;99.90;;;;;;5091741;28;20020;-66
2024/01/16 01:12:06;;;;;;;7.00;2.17;;;1.30;99.90;;;;;;5091764;28;20024;-66
2024/01/16 01:14:31;;;;;;;7.65;2.22;;;1.30;99.90;;;;;;5091738;28;20032;-66
2024/01/16 01:16:57;;;;;;;4.53;1.95;;;1.30;99.90;;;;;;5091838;28;20089;-66
2024/01/16 01:19:23;;;;;;;5.85;2.10;;;1.30;99.90;;;;;;5091781;28;20499;-66
2024/01/16 01:21:49;;;;;;;3.05;2.28;;;1.40;99.90;;;;;;5091648;28;20159;-66
2024/01/16 01:24:15;;;;;;;4.07;2.05;;;1.40;99.90;;;;;;5092746;28;20021;-66
2024/01/16 01:26:44;;;;;;;6.05;2.55;;;1.40;99.90;;;;;;5095516;28;20051;-66
2024/01/16 01:29:09;;;;;;;4.50;2.20;;;1.40;99.90;;;;;;5095192;28;20028;-66
2024/01/16 01:31:35;;;;;;;5.25;2.30;;;1.50;99.90;;;;;;5095210;28;20088;-66
2024/01/16 01:34:01;;;;;;;6.00;2.53;;;1.50;99.90;;;;;;5095095;28;20035;-66
2024/01/16 01:36:27;;;;;;;5.13;2.40;;;1.50;99.90;;;;;;5095299;28;20025;-66
2024/01/16 01:38:53;;;;;;;4.80;2.42;;;1.50;99.90;;;;;;5095079;28;20021;-66
2024/01/16 01:41:18;;;;;;;4.60;2.42;;;1.50;99.90;;;;;;5095145;28;20573;-65
2024/01/16 01:43:44;;;;;;;3.33;1.70;;;1.50;99.90;;;;;;5095080;28;20021;-66
2024/01/16 01:46:16;;;;;;;3.63;1.75;;;1.50;99.90;;;;;;5095104;28;20024;-66
2024/01/16 01:48:42;;;;;;;;;;;1.50;99.90;;;;;;5095431;28;20020;-66
2024/01/16 01:51:09;;;;;;;5.45;2.03;;;1.50;99.90;;;;;;5094956;28;19911;-66
2024/01/16 01:53:36;;;;;;;4.40;1.88;;;1.50;99.90;;;;;;5094904;28;20052;-66
2024/01/16 01:56:05;;;;;;;7.40;2.45;;;1.50;99.90;;;;;;5094935;28;20021;-66
2024/01/16 01:58:33;;;;;;;8.38;2.47;;;1.50;99.90;;;;;;5094872;28;20383;-66
2024/01/16 02:00:59;;;;;;;3.05;2.00;;;1.50;99.90;;;;;;5094817;28;20315;-66
2024/01/16 02:03:27;;;;;;;4.65;2.40;;;1.50;99.90;;;;;;5094657;28;20017;-66
2024/01/16 02:05:53;;;;;;;5.90;2.35;;;1.50;99.90;;;;;;5094718;28;20024;-66
2024/01/16 02:08:19;;;;;;;4.97;2.20;;;1.50;99.90;;;;;;5094719;28;20063;-66
2024/01/16 02:10:49;;;;;;;7.15;2.53;;;1.50;99.90;;;;;;5094564;28;20040;-66
2024/01/16 02:13:14;;;;;;;6.18;2.45;;;1.50;99.90;;;;;;5094639;28;20059;-66
2024/01/16 02:15:41;;;;;;;5.80;2.35;;;1.50;99.90;;;;;;5094533;28;20029;-66
2024/01/16 02:18:07;;;;;;;7.75;2.53;;;1.50;99.90;;;;;;5094671;28;20025;-66
2024/01/16 02:20:33;;;;;;;6.22;3.40;;;1.50;99.90;;;;;;5094438;28;20043;-66
2024/01/16 02:23:03;;;;;;;8.93;2.53;;;1.50;99.90;;;;;;5094511;28;20099;-66
2024/01/16 02:25:29;;;;;;;7.10;2.47;;;1.50;99.90;;;;;;5094324;28;20029;-66
2024/01/16 02:27:55;;;;;;;12.10;3.28;;;1.50;99.90;;;;;;5094291;28;20044;-66
2024/01/16 02:30:21;;;;;;;8.20;2.67;;;1.50;99.90;;;;;;5094173;28;20047;-66
2024/01/16 02:32:46;;;;;;;5.30;2.78;;;1.50;99.90;;;;;;5094076;28;20036;-66
2024/01/16 02:35:12;;;;;;;5.28;2.63;;;1.50;99.90;;;;;;5093802;28;20029;-66
2024/01/16 02:37:37;;;;;;;5.70;2.67;;;1.50;99.90;;;;;;5094113;28;20040;-66
2024/01/16 02:40:06;;;;;;;7.85;2.90;;;1.50;99.90;;;;;;5094039;28;20032;-66
2024/01/16 02:42:36;;;;;;;5.50;2.60;;;1.50;99.90;;;;;;5094028;28;20021;-66
2024/01/16 02:45:03;;;;;;;6.40;2.90;;;1.50;99.90;;;;;;5093947;28;20032;-66
2024/01/16 02:47:29;;;;;;;7.28;2.83;;;1.60;99.90;;;;;;5093884;28;20025;-66
2024/01/16 02:49:55;;;;;;;5.97;2.50;;;1.60;99.90;;;;;;5093831;28;20051;-66
2024/01/16 02:52:20;;;;;;;6.63;2.53;;;1.60;99.90;;;;;;5093787;28;20576;-66
2024/01/16 02:54:46;;;;;;;8.23;2.40;;;1.60;99.90;;;;;;5093760;28;20071;-66
2024/01/16 02:57:12;;;;;;;8.85;2.60;;;1.60;99.90;;;;;;5093784;28;20032;-66
2024/01/16 02:59:37;;;;;;;7.38;2.55;;;1.60;99.90;;;;;;5093668;28;20028;-66
2024/01/16 03:02:03;;;;;;;7.30;2.63;;;1.60;99.90;;;;;;5093464;28;20059;-66
2024/01/16 03:04:29;;;;;;;7.82;2.67;;;1.60;99.90;;;;;;5093583;28;20032;-66
2024/01/16 03:06:55;;;;;;;6.57;2.38;;;1.60;99.90;;;;;;5093498;28;20032;-66
2024/01/16 03:09:21;;;;;;;5.85;1.95;;;1.60;99.90;;;;;;5093334;28;20088;-66
2024/01/16 03:11:46;;;;;;;3.35;1.70;;;1.70;99.90;;;;;;5093424;28;20028;-66
2024/01/16 03:14:13;;;;;;;4.47;1.70;;;1.70;99.90;;;;;;5093451;28;20099;-66
2024/01/16 03:16:39;;;;;;;4.40;1.85;;;1.70;99.90;;;;;;5093454;28;20482;-66
2024/01/16 03:19:05;;;;;;;3.17;1.48;;;1.70;99.90;;;;;;5093320;28;20024;-66
2024/01/16 03:21:31;;;;;;;5.35;1.27;;;1.70;99.90;;;;;;5093095;28;20037;-66
2024/01/16 03:23:56;;;;;;;5.15;1.55;;;1.70;99.90;;;;;;5093093;28;20537;-67
2024/01/16 03:26:22;;;;;;;5.15;1.58;;;1.70;99.90;;;;;;5093138;28;20032;-66
2024/01/16 03:28:47;;;;;;;3.60;1.90;;;1.70;99.90;;;;;;5093032;28;20052;-66
2024/01/16 03:31:14;;;;;;;2.85;1.48;;;1.80;99.90;;;;;;5093130;28;20017;-66
2024/01/16 03:33:41;;;;;;;4.43;1.75;;;1.80;99.90;;;;;;5092958;28;20029;-66
2024/01/16 03:36:09;;;;;;;4.93;2.03;;;1.80;99.90;;;;;;5092948;28;20022;-66
2024/01/16 03:38:37;;;;;;;4.60;1.67;;;1.80;99.90;;;;;;5092877;28;20039;-66
2024/01/16 03:41:03;;;;;;;5.13;1.73;;;1.80;99.90;;;;;;5092880;28;20050;-66
2024/01/16 03:43:29;;;;;;;5.65;1.77;;;1.80;99.90;;;;;;5092884;28;20043;-66
2024/01/16 03:45:58;;;;;;;2.95;1.35;;;1.80;99.90;;;;;;5092833;28;20033;-66
2024/01/16 03:48:24;;;;;;;5.57;1.75;;;1.80;99.90;;;;;;5092004;28;20055;-66
2024/01/16 03:50:50;;;;;;;4.45;1.50;;;1.80;99.90;;;;;;5092446;28;20033;-66
2024/01/16 03:53:15;;;;;;;4.50;1.73;;;1.80;99.90;;;;;;5092412;28;20033;-66
2024/01/16 03:55:41;;;;;;;4.80;1.27;;;1.70;99.90;;;;;;5092474;28;20055;-66
2024/01/16 03:58:07;;;;;;;3.70;1.50;;;1.70;99.90;;;;;;5092535;28;20029;-66
2024/01/16 04:00:33;;;;;;;5.07;1.30;;;1.70;99.90;;;;;;5092447;28;20084;-66
2024/01/16 04:02:59;;;;;;;2.97;1.30;;;1.70;99.90;;;;;;5092310;28;20029;-66
2024/01/16 04:05:25;;;;;;;2.83;1.50;;;1.70;99.90;;;;;;5092391;28;20508;-67
2024/01/16 04:07:52;;;;;;;6.18;1.45;;;1.70;99.90;;;;;;5092525;28;20021;-66
2024/01/16 04:10:17;;;;;;;3.55;1.30;;;1.70;99.90;;;;;;5092422;28;20033;-66
2024/01/16 04:12:43;;;;;;;4.00;1.33;;;1.70;99.90;;;;;;5092510;28;20027;-66
2024/01/16 04:15:09;;;;;;;3.08;1.20;;;1.70;99.90;;;;;;5092378;28;20029;-66
2024/01/16 04:17:34;;;;;;;5.70;0.77;;;1.70;99.90;;;;;;5092365;28;20039;-66
2024/01/16 04:20:00;;;;;;;3.63;1.10;;;1.60;99.90;;;;;;5092127;28;20096;-66
2024/01/16 04:22:26;;;;;;;4.43;1.10;;;1.60;99.90;;;;;;5092274;28;20032;-66
2024/01/16 04:24:51;;;;;;;2.60;0.90;;;1.60;99.90;;;;;;5092312;28;20024;-66
2024/01/16 04:27:17;;;;;;;6.55;1.40;;;1.60;99.90;;;;;;5092265;28;20478;-66
2024/01/16 04:29:43;;;;;;;3.67;1.00;;;1.60;99.90;;;;;;5092218;28;20033;-66
2024/01/16 04:32:08;;;;;;;3.38;1.10;;;1.60;99.90;;;;;;5092015;28;20102;-66
2024/01/16 04:34:34;;;;;;;4.10;1.58;;;1.60;99.90;;;;;;5092181;28;20045;-66
2024/01/16 04:37:00;;;;;;;2.13;1.05;;;1.60;99.90;;;;;;5092114;28;20037;-66
2024/01/16 04:39:25;;;;;;;2.75;1.48;;;1.60;99.90;;;;;;5092161;28;20067;-66
2024/01/16 04:41:51;;;;;;;3.80;1.10;;;1.60;99.90;;;;;;5092139;28;20021;-66
2024/01/16 04:44:16;;;;;;;3.72;1.17;;;1.60;99.90;;;;;;5092116;28;20407;-66
2024/01/16 04:46:42;;;;;;;7.07;1.15;;;1.60;99.90;;;;;;5090957;28;20036;-66
2024/01/16 04:49:08;;;;;;;1.73;1.08;;;1.60;99.90;;;;;;5091947;28;20040;-66
2024/01/16 04:51:34;;;;;;;3.95;1.38;;;1.60;99.90;;;;;;5091991;28;20017;-65
2024/01/16 04:54:00;;;;;;;3.58;1.90;;;1.60;99.90;;;;;;5091793;28;20048;-66
2024/01/16 04:56:25;;;;;;;5.03;2.15;;;1.70;99.90;;;;;;5091998;28;20051;-66
2024/01/16 04:58:52;;;;;;;4.55;2.40;;;1.70;99.90;;;;;;5094014;28;20036;-66
2024/01/16 05:01:17;;;;;;;9.32;2.95;;;1.70;99.90;;;;;;5096020;28;20036;-66
2024/01/16 05:03:43;;;;;;;5.22;2.08;;;1.80;99.90;;;;;;5095693;28;20024;-66
2024/01/16 05:06:14;;;;;;;7.30;2.78;;;1.80;99.90;;;;;;5095928;28;20084;-66
2024/01/16 05:08:40;;;;;;;4.82;2.33;;;1.80;99.90;;;;;;5095820;28;20024;-66
2024/01/16 05:11:06;;;;;;;9.90;2.67;;;1.80;99.90;;;;;;5095753;28;20033;-66
2024/01/16 05:13:31;;;;;;;12.38;3.20;;;1.80;99.90;;;;;;5095624;28;20044;-66
2024/01/16 05:15:57;;;;;;;10.70;3.38;;;1.90;99.90;;;;;;5095599;28;20093;-66
2024/01/16 05:18:22;;;;;;;8.60;3.25;;;1.90;99.90;;;;;;5095552;28;20036;-66
2024/01/16 05:20:48;;;;;;;8.60;3.65;;;1.80;99.90;;;;;;5095502;28;20029;-66
2024/01/16 05:23:13;;;;;;;10.98;3.42;;;1.80;99.90;;;;;;5095464;28;20036;-66
2024/01/16 05:25:39;;;;;;;11.48;4.45;;;1.80;99.90;;;;;;5095517;28;20036;-66
2024/01/16 05:28:05;;;;;;;10.30;4.47;;;1.80;99.90;;;;;;5095357;28;20056;-66
2024/01/16 05:30:30;;;;;;;8.52;4.20;;;1.80;99.90;;;;;;5095180;28;20214;-66
2024/01/16 05:33:00;;;;;;;9.55;3.92;;;1.90;99.90;;;;;;5095014;28;20036;-66
2024/01/16 05:35:27;;;;;;;12.45;4.55;;;1.80;99.90;;;;;;5095310;28;20011;-66
2024/01/16 05:37:53;;;;;;;13.68;4.95;;;1.90;99.90;;;;;;5095160;28;20084;-66
2024/01/16 05:40:18;;;;;;;12.13;4.53;;;1.80;99.90;;;;;;5095231;28;20032;-66
2024/01/16 05:42:44;;;;;;;8.68;4.60;;;1.80;99.90;;;;;;5095146;28;20039;-66
2024/01/16 05:45:10;;;;;;;10.05;4.80;;;1.80;99.90;;;;;;5095080;28;20029;-66
2024/01/16 05:47:35;;;;;;;9.93;4.68;;;1.80;99.90;;;;;;5095076;28;20056;-66
2024/01/16 05:50:01;;;;;;;15.93;6.20;;;1.80;99.90;;;;;;5094986;28;20036;-66
2024/01/16 05:52:27;;;;;;;15.63;5.40;;;1.80;99.90;;;;;;5095041;28;20056;-66
2024/01/16 05:54:57;;;;;;;12.63;5.43;;;1.80;99.90;;;;;;5094855;28;20113;-66
2024/01/16 05:57:23;;;;;;;16.90;4.97;;;1.90;99.90;;;;;;5094859;28;20028;-66
2024/01/16 05:59:48;;;;;;;16.48;5.20;;;1.80;99.90;;;;;;5094849;28;20038;-66
2024/01/16 06:02:14;;;;;;;11.05;4.97;;;1.80;99.90;;;;;;5094591;28;20024;-66
2024/01/16 06:04:40;;;;;;;12.43;4.70;;;1.80;99.90;;;;;;5094779;28;20051;-66
2024/01/16 06:07:07;;;;;;;13.90;4.53;;;1.80;99.90;;;;;;5094791;28;20028;-66
2024/01/16 06:09:33;;;;;;;13.88;5.72;;;1.80;99.90;;;;;;5094029;28;20035;-66
2024/01/16 06:11:58;;;;;;;14.32;5.68;;;1.90;99.90;;;;;;5094493;28;20021;-66
2024/01/16 06:14:24;;;;;;;13.43;5.78;;;1.80;99.90;;;;;;5094633;28;20058;-66
2024/01/16 06:16:50;;;;;;;11.60;5.63;;;1.80;99.90;;;;;;5094468;28;20040;-66
2024/01/16 06:19:16;;;;;;;12.60;5.43;;;1.80;99.90;;;;;;5093483;28;20028;-66
2024/01/16 06:21:42;;;;;;;9.75;5.10;;;1.80;99.90;;;;;;5094379;28;20028;-66
2024/01/16 06:24:08;;;;;;;10.52;5.30;;;1.80;99.90;;;;;;5093829;28;20032;-66
2024/01/16 06:26:33;;;;;;;12.77;5.53;;;1.80;99.90;;;;;;5092933;28;20035;-66
2024/01/16 06:28:59;;;;;;;9.15;4.88;;;1.80;99.90;;;;;;5092263;28;20087;-65
2024/01/16 06:31:26;;;;;;;13.75;5.10;;;1.80;99.90;;;;;;5092672;28;20032;-66
2024/01/16 06:33:52;;;;;;;16.15;5.97;;;1.80;99.90;;;;;;5092877;28;20021;-66
2024/01/16 06:36:17;;;;;;;10.75;5.00;;;1.80;99.90;;;;;;5093715;28;20075;-66
2024/01/16 06:38:43;;;;;;;13.18;5.03;;;1.80;99.90;;;;;;5093076;28;20043;-66
2024/01/16 06:41:09;;;;;;;20.95;6.30;;;1.80;99.90;;;;;;5093838;28;20044;-66
2024/01/16 06:43:35;;;;;;;13.50;5.95;;;1.80;99.90;;;;;;5094097;28;20604;-65
2024/01/16 06:46:00;;;;;;;10.88;5.35;;;1.70;99.90;;;;;;5094141;28;20044;-67
2024/01/16 06:48:26;;;;;;;10.38;5.32;;;1.70;99.90;;;;;;5093922;28;20029;-66
2024/01/16 06:50:52;;;;;;;11.23;5.07;;;1.70;99.90;;;;;;5093762;28;20068;-66
2024/01/16 06:53:17;;;;;;;12.77;4.90;;;1.70;99.90;;;;;;5093789;28;20041;-66
2024/01/16 06:55:43;;;;;;;11.63;5.32;;;1.70;99.90;;;;;;5093782;28;20028;-66
2024/01/16 06:58:10;;;;;;;13.13;4.88;;;1.70;99.90;;;;;;5093745;28;20047;-66
2024/01/16 07:00:35;;;;;;;13.23;5.30;;;1.70;99.90;;;;;;5093677;28;20044;-66
2024/01/16 07:03:02;;;;;;;10.63;4.85;;;1.70;99.90;;;;;;5079449;28;20032;-66
2024/01/16 07:05:29;;;;;;;11.38;4.35;;;1.70;99.90;;;;;;5073567;28;20052;-66
2024/01/16 07:07:55;;;;;;;16.02;5.22;;;1.70;99.90;;;;;;5073596;28;20044;-66
2024/01/16 07:10:22;;;;;;;14.23;4.80;;;1.70;99.90;;;;;;5073468;28;20060;-66
2024/01/16 07:12:49;;;;;;;11.05;4.45;;;1.70;99.90;;;;;;5073476;28;20021;-67
2024/01/16 07:15:14;;;;;;;12.38;4.60;;;1.70;99.90;;;;;;5073434;28;20036;-66
2024/01/16 07:17:40;;;;;;;9.43;4.22;;;1.70;99.90;;;;;;5073346;28;20014;-66
2024/01/16 07:20:07;;;;;;;12.57;4.45;;;1.60;99.90;;;;;;5073171;28;20129;-66
2024/01/16 07:22:34;;;;;;;11.68;4.15;;;1.60;99.90;;;;;;5072016;28;20029;-66
2024/01/16 07:25:00;;;;;;;9.45;4.25;;;1.60;99.90;;;;;;5072017;28;20502;-66
2024/01/16 07:27:26;;;;;;;6.63;4.03;;;1.50;99.90;;;;;;5071840;28;20025;-66
2024/01/16 07:29:51;;;;;;;9.07;4.40;;;1.50;99.90;;;;;;5073086;28;20065;-67
2024/01/16 07:32:17;;;;;;;14.32;4.25;;;1.50;99.90;;;;;;5072867;28;20032;-66
2024/01/16 07:34:42;;;;;;;8.35;4.25;;;1.50;99.90;;;;;;5073062;28;20073;-66
2024/01/16 07:37:08;;;;;;;5.45;3.83;;;1.50;99.90;;;;;;5072873;28;20029;-66
2024/01/16 07:39:34;;;;;;;12.90;4.05;;;1.50;99.90;;;;;;5073043;28;20033;-66
2024/01/16 07:42:00;;;;;;;5.35;3.92;;;1.50;99.90;;;;;;5072740;28;20030;-66
2024/01/16 07:44:26;;;;;;;6.65;3.75;;;1.40;99.90;;;;;;5072794;28;20092;-66
2024/01/16 07:46:51;;;;;;;8.05;4.07;;;1.40;99.90;;;;;;5072654;28;20025;-66
2024/01/16 07:49:17;;;;;;;12.85;5.18;;;1.40;99.90;;;;;;5072628;28;20029;-66
2024/01/16 07:51:43;;;;;;;12.15;5.32;;;1.40;99.90;;;;;;5072687;28;20102;-66
2024/01/16 07:54:09;;;;;;;8.45;3.72;;;1.40;99.90;;;;;;5072536;28;20519;-66
2024/01/16 07:56:36;;;;;;;7.30;3.92;;;1.40;99.90;;;;;;5072526;28;21158;-66
2024/01/16 07:59:02;;;;;;;12.70;4.45;;;1.40;99.90;;;;;;5072545;28;20103;-66
2024/01/16 08:01:28;;;;;;;16.42;6.50;;;1.40;99.90;;;;;;5072540;28;20046;-66
2024/01/16 08:03:54;;;;;;;10.35;3.92;;;1.40;99.90;;;;;;5072405;28;20056;-66
2024/01/16 08:06:21;;;;;;;12.38;4.18;;;1.30;99.90;;;;;;5072386;28;20025;-66
2024/01/16 08:08:46;;;;;;;14.13;5.13;;;1.40;99.90;;;;;;5072442;28;20029;-66
2024/01/16 08:11:12;;;;;;;9.48;3.28;;;1.30;99.90;;;;;;5072436;28;20056;-66
2024/01/16 08:13:38;;;;;;;8.60;3.88;;;1.30;99.90;;;;;;5072330;28;20033;-66
2024/01/16 08:16:04;;;;;;;12.80;5.47;;;1.30;99.90;;;;;;5072204;28;20021;-66
2024/01/16 08:18:31;;;;;;;8.85;3.45;;;1.30;99.90;;;;;;5072337;28;20059;-66
2024/01/16 08:20:57;;;;;;;10.70;5.45;;;1.30;99.90;;;;;;5072152;28;20025;-66
2024/01/16 08:23:22;;;;;;;7.10;3.42;;;1.30;99.90;;;;;;5072244;28;20081;-66
2024/01/16 08:25:48;;;;;;;8.13;4.40;;;1.40;99.90;;;;;;5072156;28;20056;-66
2024/01/16 08:28:14;;;;;;;12.02;4.30;;;1.40;99.90;;;;;;5072154;28;20051;-66
2024/01/16 08:30:40;;;;;;;5.63;3.22;;;1.40;99.90;;;;;;5072125;28;20036;-66
2024/01/16 08:33:07;;;;;;;11.05;4.53;;;1.40;99.90;;;;;;5071602;28;20021;-66
2024/01/16 08:35:33;;;;;;;9.32;3.85;;;1.40;99.90;;;;;;5072031;28;20036;-66
2024/01/16 08:37:58;;;;;;;7.70;3.55;;;1.40;99.90;;;;;;5071963;28;20021;-66
2024/01/16 08:40:25;;;;;;;6.38;3.50;;;1.40;99.90;;;;;;5071982;28;20037;-66
2024/01/16 08:42:54;;;;;;;6.18;2.72;;;1.40;99.90;;;;;;5072182;28;20021;-66
2024/01/16 08:45:20;;;;;;;8.07;3.53;;;1.40;99.90;;;;;;5071970;28;20089;-66
2024/01/16 08:47:46;;;;;;;15.38;5.32;;;1.40;99.90;;;;;;5072075;28;20112;-66
2024/01/16 08:50:12;;;;;;;12.30;5.35;;;1.40;99.90;;;;;;5081362;28;20036;-66
2024/01/16 08:52:37;;;;;;;9.23;3.38;;;1.40;99.90;;;;;;5091971;28;20059;-66
2024/01/16 08:55:04;;;;;;;7.40;4.15;;;1.40;99.90;;;;;;5089701;28;20040;-66
2024/01/16 08:57:30;;;;;;;4.20;2.78;;;1.40;99.90;;;;;;5090470;28;20032;-66
2024/01/16 08:59:55;;;;;;;7.55;4.07;;;1.40;99.90;;;;;;5090996;28;20029;-66
2024/01/16 09:02:21;;;;;;;9.45;3.70;;;1.40;99.90;;;;;;5090942;28;20028;-66
2024/01/16 09:04:47;;;;;;;5.15;2.95;;;1.40;99.90;;;;;;5090635;28;20029;-66
2024/01/16 09:07:15;;;;;;;12.75;5.88;;;1.50;99.90;;;;;;5091346;28;20036;-66
2024/01/16 09:09:42;;;;;;;18.67;10.73;;;1.40;99.90;;;;;;5091694;28;20092;-66
2024/01/16 09:12:10;;;;;;;9.25;4.55;;;1.40;99.90;;;;;;5091899;28;20051;-66
2024/01/16 09:14:36;;;;;;;10.27;4.20;;;1.50;99.90;;;;;;5091980;28;20035;-66
2024/01/16 09:17:03;;;;;;;8.18;3.15;;;1.50;99.90;;;;;;5091778;28;20411;-66
2024/01/16 09:19:29;;;;;;;4.97;2.80;;;1.50;99.90;;;;;;5091848;28;20032;-67
2024/01/16 09:21:55;;;;;;;5.47;2.67;;;1.50;99.90;;;;;;5091721;28;20024;-66
2024/01/16 09:24:20;;;;;;;7.05;2.92;;;1.50;99.90;;;;;;5091789;28;20053;-66
2024/01/16 09:26:46;;;;;;;8.65;3.13;;;1.50;99.90;;;;;;5091766;28;20084;-66
2024/01/16 09:29:14;;;;;;;4.28;2.65;;;1.50;99.90;;;;;;5091604;28;20048;-66
2024/01/16 09:31:40;;;;;;;6.30;3.38;;;1.50;99.90;;;;;;5091601;28;20013;-67
2024/01/16 09:34:05;;;;;;;8.18;3.00;;;1.50;99.90;;;;;;5091410;28;20028;-66
2024/01/16 09:36:31;;;;;;;5.97;2.50;;;1.50;99.90;;;;;;5091518;28;20029;-66
2024/01/16 09:38:56;;;;;;;3.45;2.22;;;1.50;99.90;;;;;;5091613;28;20082;-66
2024/01/16 09:41:23;;;;;;;13.93;4.93;;;1.50;99.90;;;;;;5091574;28;20108;-67
2024/01/16 09:43:51;;;;;;;9.07;3.17;;;1.60;99.90;;;;;;5091589;28;20027;-66
2024/01/16 09:46:19;;;;;;;6.47;2.72;;;1.60;99.90;;;;;;5093911;28;20040;-66
2024/01/16 09:48:46;;;;;;;6.00;2.60;;;1.60;99.90;;;;;;5095139;28;20028;-66
2024/01/16 09:51:15;;;;;;;7.57;2.80;;;1.70;99.90;;;;;;5093769;28;20029;-66
2024/01/16 09:53:42;;;;;;;6.85;2.92;;;1.70;99.90;;;;;;5093833;28;20075;-66
2024/01/16 09:56:15;;;;;;;6.50;3.70;;;1.70;99.90;;;;;;5095002;28;20025;-66
2024/01/16 09:58:43;;;;;;;8.48;3.22;;;1.70;99.90;;;;;;5094976;28;20044;-66
2024/01/16 10:01:11;;;;;;;6.50;2.30;;;1.70;99.90;;;;;;5094892;28;20035;-65
2024/01/16 10:03:38;;;;;;;9.73;3.58;;;1.60;99.90;;;;;;5094615;28;20020;-66
2024/01/16 10:06:07;;;;;;;6.45;2.28;;;1.60;99.90;;;;;;5094814;28;20035;-66
2024/01/16 10:08:33;;;;;;;7.00;2.67;;;1.60;99.90;;;;;;5094769;28;20077;-66
2024/01/16 10:10:59;;;;;;;7.43;3.17;;;1.60;99.90;;;;;;5094743;28;20024;-66
2024/01/16 10:13:26;;;;;;;9.15;2.80;;;1.70;99.90;;;;;;5094764;28;20024;-66
2024/01/16 10:15:55;;;;;;;7.57;3.10;;;1.60;99.90;;;;;;5094636;28;20023;-66
2024/01/16 10:18:30;;;;;;;10.48;3.42;;;1.70;99.90;;;;;;5094527;28;20028;-66
2024/01/16 10:20:56;;;;;;;5.63;3.22;;;1.70;99.90;;;;;;5094580;28;20020;-66
2024/01/16 10:23:25;;;;;;;5.32;3.00;;;1.80;99.90;;;;;;5094490;28;20033;-66
2024/01/16 10:26:11;;;;;;;8.02;3.38;;;1.80;99.90;;;;;;5094404;28;20036;-66
2024/01/16 10:28:41;;;;;;;7.13;2.90;;;1.80;99.90;;;;;;5094312;28;20024;-66
2024/01/16 10:31:13;;;;;;;9.70;2.50;;;1.80;99.90;;;;;;5094299;28;20064;-67
2024/01/16 10:33:39;;;;;;;;;;;1.80;99.90;;;;;;5094571;28;20117;-66
2024/01/16 10:36:13;;;;;;;7.72;3.13;;;1.80;99.90;;;;;;5094244;28;19911;-66
2024/01/16 10:38:40;;;;;;;5.35;2.88;;;1.80;99.90;;;;;;5086846;28;20499;-67
2024/01/16 10:41:08;;;;;;;5.63;2.50;;;1.80;99.90;;;;;;5073959;28;20032;-66
2024/01/16 10:43:34;;;;;;;5.82;3.00;;;1.80;99.90;;;;;;5074020;28;20021;-66
2024/01/16 10:46:15;;;;;;;6.57;3.45;;;1.80;99.90;;;;;;5073317;28;20037;-65
2024/01/16 10:48:58;;;;;;;6.13;3.42;;;1.80;99.90;;;;;;5072177;28;20031;-66
2024/01/16 10:51:25;;;;;;;9.70;3.58;;;1.90;99.90;;;;;;5071858;28;20029;-65
2024/01/16 10:53:58;;;;;;;10.05;3.75;;;1.90;99.90;;;;;;5071939;28;20037;-66
2024/01/16 10:56:25;;;;;;;6.90;3.13;;;1.90;99.90;;;;;;5072032;28;20021;-66
2024/01/16 10:59:15;;;;;;;9.60;3.70;;;2.00;99.90;;;;;;5089182;28;20017;-68
2024/01/16 11:01:45;;;;;;;10.57;4.82;;;2.10;99.90;;;;;;5093249;28;20029;-66
2024/01/16 11:04:12;;;;;;;11.35;4.80;;;2.20;99.90;;;;;;5093204;28;20021;-67
2024/01/16 11:06:39;;;;;;;10.57;4.60;;;2.10;99.90;;;;;;5093257;28;20027;-67
2024/01/16 11:09:06;;;;;;;7.38;3.65;;;2.10;99.90;;;;;;5093525;28;20029;-66
2024/01/16 11:11:34;;;;;;;6.82;3.60;;;2.10;99.90;;;;;;5093281;28;20052;-66
2024/01/16 11:14:03;;;;;;;10.60;4.22;;;2.10;99.90;;;;;;5093429;28;20028;-66
2024/01/16 11:16:31;;;;;;;7.15;2.80;;;2.10;99.90;;;;;;5093447;28;20035;-67
2024/01/16 11:18:57;;;;;;;8.35;4.10;;;2.10;99.90;;;;;;5093386;28;20079;-67
2024/01/16 11:21:23;;;;;;;6.63;3.35;;;2.10;99.90;;;;;;5093260;28;20024;-67
2024/01/16 11:23:49;;;;;;;8.23;4.15;;;2.20;99.90;;;;;;5093293;28;20024;-67
2024/01/16 11:26:24;;;;;;;6.40;3.75;;;2.20;99.90;;;;;;5093207;28;20033;-66
2024/01/16 11:28:50;;;;;;;9.55;3.58;;;2.30;99.90;;;;;;5093128;28;20081;-66
2024/01/16 11:31:36;;;;;;;5.88;3.22;;;2.30;99.90;;;;;;5092947;28;20025;-66
2024/01/16 11:34:02;;;;;;;9.82;3.63;;;2.40;99.90;;;;;;5092629;28;20059;-67
2024/01/16 11:36:54;;;;;;;8.32;3.15;;;2.40;99.90;;;;;;5093023;28;20479;-67
2024/01/16 11:39:25;;;;;;;7.95;2.85;;;2.40;99.90;;;;;;5092994;28;20056;-66
2024/01/16 11:41:52;;;;;;;6.88;3.83;;;2.50;99.90;;;;;;5092819;28;20016;-66
2024/01/16 11:44:51;;;;;;;17.70;4.05;;;2.50;99.90;;;;;;5091882;28;20028;-67
2024/01/16 11:47:23;;;;;;;9.68;3.70;;;2.50;99.90;;;;;;5091596;28;20040;-66
2024/01/16 11:49:51;;;;;;;7.13;3.80;;;2.50;99.90;;;;;;5092690;28;20051;-66
2024/01/16 11:52:43;;;;;;;9.05;4.50;;;2.60;99.90;;;;;;5092769;28;20036;-66
2024/01/16 11:55:31;;;;;;;16.45;4.55;;;2.60;99.90;;;;;;5092441;28;20052;-67
2024/01/16 11:58:17;;;;;;;6.72;3.58;;;2.70;99.90;;;;;;5092678;28;20025;-67
2024/01/16 12:00:45;;;;;;;7.03;3.92;;;2.70;99.90;;;;;;5092665;28;20020;-67
2024/01/16 12:03:15;;;;;;;8.52;4.40;;;2.80;99.90;;;;;;5092480;28;20020;-66
2024/01/16 12:05:40;;;;;;;6.78;3.63;;;2.80;99.90;;;;;;5092635;28;20029;-66
2024/01/16 12:08:06;;;;;;;20.48;7.25;;;2.80;99.90;;;;;;5091929;28;20033;-66
2024/01/16 12:10:32;;;;;;;10.77;3.90;;;2.90;99.90;;;;;;5092350;28;20032;-66
2024/01/16 12:12:59;;;;;;;9.50;4.45;;;2.90;99.90;;;;;;5092418;28;20021;-66
2024/01/16 12:15:26;;;;;;;5.93;3.60;;;3.00;99.90;;;;;;5092495;28;20024;-66
2024/01/16 12:17:57;;;;;;;8.18;3.90;;;3.10;99.90;;;;;;5092456;28;20017;-66
2024/01/16 12:20:24;;;;;;;8.80;4.35;;;3.10;99.90;;;;;;5092220;28;20035;-67
2024/01/16 12:23:06;;;;;;;10.30;4.75;;;3.10;99.90;;;;;;5092491;28;20024;-66
2024/01/16 12:25:36;;;;;;;12.18;4.97;;;3.20;99.90;;;;;;5092273;28;20020;-66
2024/01/16 12:28:06;;;;;;;10.63;4.70;;;3.20;99.90;;;;;;5091234;28;20092;-66
2024/01/16 12:30:32;;;;;;;11.27;5.25;;;3.20;99.90;;;;;;5092113;28;20062;-67
2024/01/16 12:33:07;;;;;;;7.57;4.25;;;3.20;99.90;;;;;;5092126;28;20017;-66
2024/01/16 12:35:37;;;;;;;9.45;4.30;;;3.20;99.90;;;;;;5092193;28;20021;-66
2024/01/16 12:38:09;;;;;;;9.18;4.35;;;3.20;99.90;;;;;;5092099;28;20514;-67
2024/01/16 12:40:38;;;;;;;11.40;5.95;;;3.30;99.90;;;;;;5092149;28;20048;-66
2024/01/16 12:43:05;;;;;;;7.47;3.60;;;3.30;99.90;;;;;;5092207;28;20028;-67
2024/01/16 12:45:32;;;;;;;9.77;4.13;;;3.30;99.90;;;;;;5092178;28;20124;-67
2024/01/16 12:47:59;;;;;;;10.30;3.65;;;3.30;99.90;;;;;;5092169;28;20096;-66
2024/01/16 12:50:26;;;;;;;6.45;3.47;;;3.30;99.90;;;;;;5091939;28;20032;-66
2024/01/16 12:53:02;;;;;;;5.28;2.80;;;3.30;99.90;;;;;;5092056;28;20024;-67
2024/01/16 12:55:28;;;;;;;10.77;3.08;;;3.30;99.90;;;;;;5091908;28;20052;-66